createdAt,value
2017-11-05T00:02:03.728Z,14.40
2017-11-05T00:04:31.250Z,14.40
2017-11-05T00:06:58.717Z,14.30
2017-11-05T00:09:26.187Z,14.30
2017-11-05T00:11:53.704Z,14.20
2017-11-05T00:14:21.970Z,14.00
2017-11-05T00:16:50.237Z,14.00
2017-11-05T00:19:17.715Z,13.90
2017-11-05T00:21:45.976Z,13.90
2017-11-05T00:24:13.443Z,13.90
2017-11-05T00:26:41.688Z,13.80
2017-11-05T00:29:09.178Z,13.80
2017-11-05T00:31:36.660Z,13.80
2017-11-05T00:34:04.920Z,13.80
2017-11-05T00:36:33.167Z,13.80
2017-11-05T00:39:00.652Z,13.80
2017-11-05T00:41:28.915Z,13.80
2017-11-05T00:43:57.167Z,13.80
2017-11-05T00:46:24.664Z,13.70
2017-11-05T00:48:52.911Z,13.70
2017-11-05T00:51:20.437Z,13.70
2017-11-05T00:53:47.932Z,13.70
2017-11-05T00:56:15.421Z,13.70
2017-11-05T00:58:43.675Z,13.60
2017-11-05T01:01:11.152Z,13.60
2017-11-05T01:03:39.423Z,13.60
2017-11-05T01:06:07.675Z,13.60
2017-11-05T01:08:35.160Z,13.60
2017-11-05T01:11:03.425Z,13.60
2017-11-05T01:13:30.900Z,13.60
2017-11-05T01:15:59.161Z,13.50
2017-11-05T01:18:26.644Z,13.50
2017-11-05T01:20:54.912Z,13.60
2017-11-05T01:23:23.167Z,13.50
2017-11-05T01:25:50.643Z,13.50
2017-11-05T01:28:18.918Z,13.50
2017-11-05T01:30:47.157Z,13.50
2017-11-05T01:33:14.651Z,13.50
2017-11-05T01:35:42.924Z,13.50
2017-11-05T01:38:10.423Z,13.50
2017-11-05T01:40:37.903Z,13.50
2017-11-05T01:43:05.383Z,13.50
2017-11-05T01:45:32.882Z,13.50
2017-11-05T01:48:01.127Z,13.40
2017-11-05T01:50:29.423Z,13.30
2017-11-05T01:52:57.673Z,13.40
2017-11-05T01:55:25.168Z,13.30
2017-11-05T01:57:53.413Z,13.30
2017-11-05T02:00:20.892Z,13.30
2017-11-05T02:02:49.149Z,13.30
2017-11-05T02:05:16.628Z,13.20
2017-11-05T02:07:44.892Z,13.20
2017-11-05T02:10:13.139Z,13.20
2017-11-05T02:12:40.635Z,13.20
2017-11-05T02:15:08.884Z,13.20
2017-11-05T02:17:36.367Z,13.20
2017-11-05T02:20:04.624Z,13.20
2017-11-05T02:22:32.113Z,13.20
2017-11-05T02:24:59.675Z,13.20
2017-11-05T02:27:27.920Z,13.20
2017-11-05T02:29:55.433Z,13.10
2017-11-05T02:32:22.957Z,13.10
2017-11-05T02:34:51.216Z,13.10
2017-11-05T02:37:18.711Z,13.10
2017-11-05T02:39:46.188Z,13.10
2017-11-05T02:42:13.684Z,13.00
2017-11-05T02:44:41.172Z,13.00
2017-11-05T02:47:09.429Z,13.00
2017-11-05T02:49:36.926Z,12.90
2017-11-05T02:52:04.412Z,12.90
2017-11-05T02:54:31.902Z,12.90
2017-11-05T02:56:59.387Z,12.90
2017-11-05T02:59:27.651Z,12.90
2017-11-05T03:01:55.895Z,12.90
2017-11-05T03:04:23.377Z,12.90
2017-11-05T03:06:51.655Z,12.80
2017-11-05T03:09:19.184Z,12.80
2017-11-05T03:11:46.672Z,12.80
2017-11-05T03:14:14.153Z,12.80
2017-11-05T03:16:42.519Z,12.70
2017-11-05T03:19:10.761Z,12.70
2017-11-05T03:21:38.240Z,12.70
2017-11-05T03:24:05.816Z,12.70
2017-11-05T03:26:34.060Z,12.70
2017-11-05T03:29:01.618Z,12.70
2017-11-05T03:31:29.109Z,12.70
2017-11-05T03:33:57.377Z,12.70
2017-11-05T03:36:24.852Z,12.70
2017-11-05T03:38:53.101Z,12.70
2017-11-05T03:41:20.583Z,12.70
2017-11-05T03:43:48.827Z,12.70
2017-11-05T03:46:16.317Z,12.70
2017-11-05T03:48:44.567Z,12.70
2017-11-05T03:51:12.156Z,12.70
2017-11-05T03:53:39.742Z,12.70
2017-11-05T03:56:07.228Z,12.70
2017-11-05T03:58:34.719Z,12.70
2017-11-05T04:01:02.204Z,12.70
2017-11-05T04:03:29.704Z,12.70
2017-11-05T04:05:57.180Z,12.70
2017-11-05T04:08:24.767Z,12.70
2017-11-05T04:10:53.019Z,12.80
2017-11-05T04:13:20.495Z,12.70
2017-11-05T04:15:48.767Z,12.70
2017-11-05T04:18:16.247Z,12.70
2017-11-05T04:20:43.743Z,12.70
2017-11-05T04:23:11.224Z,12.60
2017-11-05T04:25:38.728Z,12.60
2017-11-05T04:28:06.240Z,12.60
2017-11-05T04:30:33.721Z,12.50
2017-11-05T04:33:01.981Z,12.50
2017-11-05T04:35:29.461Z,12.50
2017-11-05T04:37:57.723Z,12.40
2017-11-05T04:40:25.196Z,12.30
2017-11-05T04:42:53.472Z,12.30
2017-11-05T04:45:21.719Z,12.30
2017-11-05T04:47:49.197Z,12.20
2017-11-05T04:50:17.458Z,12.20
2017-11-05T04:52:44.946Z,12.20
2017-11-05T04:55:13.204Z,12.20
2017-11-05T04:57:42.197Z,12.20
2017-11-05T05:00:09.697Z,12.10
2017-11-05T05:02:37.180Z,12.00
2017-11-05T05:05:04.655Z,11.90
2017-11-05T05:07:32.219Z,11.70
2017-11-05T05:12:51.114Z,11.50
2017-11-05T05:15:18.587Z,11.50
2017-11-05T05:17:46.853Z,11.40
2017-11-05T05:20:15.100Z,11.30
2017-11-05T05:22:42.580Z,11.20
2017-11-05T05:25:11.613Z,11.10
2017-11-05T05:27:39.088Z,11.10
2017-11-05T05:30:06.576Z,10.90
2017-11-05T05:32:34.056Z,10.90
2017-11-05T05:35:02.445Z,10.70
2017-11-05T05:37:30.688Z,10.70
2017-11-05T05:39:58.167Z,10.70
2017-11-05T05:42:26.425Z,10.50
2017-11-05T05:44:53.908Z,10.50
2017-11-05T05:47:22.162Z,10.40
2017-11-05T05:49:49.643Z,10.40
2017-11-05T05:52:17.914Z,10.30
2017-11-05T05:54:46.163Z,10.30
2017-11-05T05:57:13.687Z,10.30
2017-11-05T05:59:41.183Z,10.30
2017-11-05T06:02:08.667Z,10.20
2017-11-05T06:04:36.948Z,10.10
2017-11-05T06:07:05.191Z,10.10
2017-11-05T06:09:32.693Z,10.10
2017-11-05T06:12:00.955Z,10.10
2017-11-05T06:14:29.203Z,10.10
2017-11-05T06:16:56.695Z,10.10
2017-11-05T06:19:24.940Z,10.10
2017-11-05T12:16:37.153Z,11.40
2017-11-05T12:19:04.653Z,11.30
2017-11-05T12:21:32.152Z,11.30
2017-11-05T12:23:59.651Z,11.40
2017-11-05T12:26:27.120Z,11.40
2017-11-05T12:28:54.624Z,11.40
2017-11-05T12:31:22.883Z,11.40
2017-11-05T12:33:51.201Z,11.30
2017-11-05T12:36:18.715Z,11.40
2017-11-05T12:38:46.184Z,11.40
2017-11-05T12:41:14.447Z,11.50
2017-11-05T12:43:41.919Z,11.50
2017-11-05T12:46:09.469Z,11.50
2017-11-05T12:48:37.727Z,11.60
2017-11-05T12:51:05.205Z,11.60
2017-11-05T12:53:33.477Z,11.70
2017-11-05T12:56:00.953Z,11.70
2017-11-05T12:58:29.191Z,11.60
2017-11-05T13:00:56.688Z,11.60
2017-11-05T13:03:24.947Z,11.70
2017-11-05T13:05:53.220Z,11.70
2017-11-05T13:08:20.722Z,11.70
2017-11-05T13:10:48.285Z,11.70
2017-11-05T13:13:15.792Z,11.60
2017-11-05T13:15:43.272Z,11.70
2017-11-05T13:18:11.524Z,11.60
2017-11-05T13:20:38.996Z,11.60
2017-11-05T13:23:07.252Z,11.60
2017-11-05T13:25:34.724Z,11.50
2017-11-05T13:28:02.204Z,11.50
2017-11-05T13:30:30.472Z,11.70
2017-11-05T13:32:58.720Z,11.80
2017-11-05T13:35:26.225Z,11.80
2017-11-05T13:37:53.715Z,11.70
2017-11-05T13:40:21.212Z,11.70
2017-11-05T13:42:48.687Z,11.60
2017-11-05T13:45:16.964Z,11.60
2017-11-05T13:47:45.215Z,11.60
2017-11-05T13:50:14.196Z,11.70
2017-11-05T13:52:41.681Z,11.70
2017-11-05T13:55:09.971Z,11.80
2017-11-05T13:57:37.481Z,11.80
2017-11-05T14:00:04.956Z,11.80
2017-11-05T14:02:32.439Z,11.70
2017-11-05T14:05:00.704Z,11.60
2017-11-05T14:07:28.187Z,11.50
2017-11-05T14:09:55.691Z,11.60
2017-11-05T14:12:23.159Z,11.60
2017-11-05T14:14:50.644Z,11.60
2017-11-05T14:17:18.921Z,11.50
2017-11-05T14:19:47.168Z,11.40
2017-11-05T14:22:14.680Z,11.50
2017-11-05T14:24:42.148Z,11.30
2017-11-05T14:27:09.654Z,11.20
2017-11-05T14:29:37.127Z,10.80
2017-11-05T14:32:05.390Z,10.30
2017-11-05T14:34:32.904Z,10.30
2017-11-05T14:37:00.468Z,10.20
2017-11-05T14:39:27.955Z,10.00
2017-11-05T14:41:55.417Z,9.90
2017-11-05T14:44:22.936Z,9.80
2017-11-05T14:46:50.431Z,9.80
2017-11-05T14:49:17.953Z,9.70
2017-11-05T14:51:45.424Z,9.60
2017-11-05T14:54:12.896Z,9.60
2017-11-05T14:56:40.383Z,9.60
2017-11-05T14:59:07.852Z,9.50
2017-11-05T15:01:36.099Z,9.50
2017-11-05T15:04:03.571Z,9.50
2017-11-05T15:06:31.067Z,9.50
2017-11-05T15:08:58.613Z,9.50
2017-11-05T15:11:27.056Z,9.40
2017-11-05T15:13:54.579Z,9.40
2017-11-05T15:16:22.065Z,9.40
2017-11-05T15:18:49.596Z,9.40
2017-11-05T15:21:17.912Z,9.40
2017-11-05T15:23:45.415Z,9.40
2017-11-05T15:26:13.651Z,9.50
2017-11-05T15:28:41.125Z,9.50
2017-11-05T15:31:09.389Z,9.50
2017-11-05T15:33:36.859Z,9.50
2017-11-05T15:36:04.343Z,9.50
2017-11-05T15:38:31.835Z,9.60
2017-11-05T15:40:59.322Z,9.60
2017-11-05T15:43:27.556Z,9.60
2017-11-05T15:45:55.024Z,9.60
2017-11-05T15:48:22.528Z,9.60
2017-11-05T15:50:50.772Z,9.50
2017-11-05T15:53:18.304Z,9.50
2017-11-05T15:55:45.784Z,9.50
2017-11-05T15:58:13.280Z,9.40
2017-11-05T16:00:41.753Z,9.30
2017-11-05T16:03:10.530Z,9.30
2017-11-05T16:05:38.013Z,9.30
2017-11-05T16:08:06.266Z,9.30
2017-11-05T16:10:33.745Z,9.30
2017-11-05T16:13:02.000Z,9.30
2017-11-05T16:15:29.484Z,9.30
2017-11-05T16:17:57.740Z,9.40
2017-11-05T16:20:25.996Z,9.50
2017-11-05T16:22:53.501Z,9.50
2017-11-05T16:25:21.766Z,9.50
2017-11-05T16:27:50.020Z,9.50
2017-11-05T16:30:17.515Z,9.50
2017-11-05T16:32:45.818Z,9.50
2017-11-05T16:35:13.289Z,9.50
2017-11-05T16:37:40.765Z,9.40
2017-11-05T16:40:08.250Z,9.40
2017-11-05T16:42:36.544Z,9.30
2017-11-05T16:45:04.793Z,9.30
2017-11-05T16:47:33.228Z,9.30
2017-11-05T16:50:00.720Z,9.30
2017-11-05T16:52:28.184Z,9.20
2017-11-05T16:54:55.663Z,9.20
2017-11-05T16:57:23.980Z,9.10
2017-11-05T16:59:51.492Z,9.10
2017-11-05T17:02:18.982Z,9.10
2017-11-05T17:04:46.467Z,9.10
2017-11-05T17:07:13.956Z,9.00
2017-11-05T17:09:41.473Z,9.00
2017-11-05T17:12:08.955Z,8.90
2017-11-05T17:14:36.449Z,8.80
